Ashford, Washington
Current Conditions -  °F | °C
As of 10:12 PM on Saturday 25 Oct 2014 (Local Time) from KGRF Reporting Station
Heavy Rain Heavy Rain  
Wind Chill: 52°   Ceiling: Unl
Heat Index: 52°   Visibility: 10mi
Dew Point: 48°   Wind: 14mph
Humidity: 88%   Direction: 170°S
Pressure: 29.69"   Gusts: NA
Location:  46.76°N, 122.03°W
Report Text: KGRF 260512Z AUTO 17012KT 10SM +RA FEW200 11/09 A2969 RMK AO2
Loading
Personal Weather Stations






























Interactive Weather Map
Tropical Storm Tracking
New forecast layout! Learn more

10-Day Weather Forecast

Advertisements
Track Severe Weather on mobile